sensor_id;sensor_type;location;lat;lon;timestamp;temperature;humidity
74513;DHT22;62992;52.052;8.550;2023-01-10T00:02:16;6.20;99.90
74513;DHT22;62992;52.052;8.550;2023-01-10T00:05:00;6.10;99.90
74513;DHT22;62992;52.052;8.550;2023-01-10T00:07:45;6.10;99.90
74513;DHT22;62992;52.052;8.550;2023-01-10T00:10:30;6.00;99.90
74513;DHT22;62992;52.052;8.550;2023-01-10T00:13:15;5.90;99.90
74513;DHT22;62992;52.052;8.550;2023-01-10T00:16:09;5.90;99.90
74513;DHT22;62992;52.052;8.550;2023-01-10T00:18:53;5.90;99.90
74513;DHT22;62992;52.052;8.550;2023-01-10T00:21:38;5.80;99.90
74513;DHT22;62992;52.052;8.550;2023-01-10T00:24:22;5.90;99.90
74513;DHT22;62992;52.052;8.550;2023-01-10T00:27:06;5.80;99.90
74513;DHT22;62992;52.052;8.550;2023-01-10T00:29:52;5.80;99.90
74513;DHT22;62992;52.052;8.550;2023-01-10T00:32:37;5.80;99.90
74513;DHT22;62992;52.052;8.550;2023-01-10T00:35:21;5.80;99.90
74513;DHT22;62992;52.052;8.550;2023-01-10T00:38:06;5.70;99.90
74513;DHT22;62992;52.052;8.550;2023-01-10T00:40:50;5.70;99.90
74513;DHT22;62992;52.052;8.550;2023-01-10T00:43:34;5.60;99.90
74513;DHT22;62992;52.052;8.550;2023-01-10T00:46:37;5.60;99.90
74513;DHT22;62992;52.052;8.550;2023-01-10T00:49:21;5.60;99.90
74513;DHT22;62992;52.052;8.550;2023-01-10T00:52:06;5.60;99.90
74513;DHT22;62992;52.052;8.550;2023-01-10T00:54:50;5.50;99.90
74513;DHT22;62992;52.052;8.550;2023-01-10T00:57:34;5.60;99.90
74513;DHT22;62992;52.052;8.550;2023-01-10T01:00:18;5.60;99.90
74513;DHT22;62992;52.052;8.550;2023-01-10T01:03:03;5.60;99.90
74513;DHT22;62992;52.052;8.550;2023-01-10T01:05:47;5.60;99.90
74513;DHT22;62992;52.052;8.550;2023-01-10T01:08:32;5.70;99.90
74513;DHT22;62992;52.052;8.550;2023-01-10T01:11:16;5.80;99.90
74513;DHT22;62992;52.052;8.550;2023-01-10T01:14:00;5.80;99.90
74513;DHT22;62992;52.052;8.550;2023-01-10T01:16:44;5.80;99.90
74513;DHT22;62992;52.052;8.550;2023-01-10T01:19:28;5.80;99.90
74513;DHT22;62992;52.052;8.550;2023-01-10T01:22:12;5.80;99.90
74513;DHT22;62992;52.052;8.550;2023-01-10T01:24:57;5.90;99.90
74513;DHT22;62992;52.052;8.550;2023-01-10T01:27:41;5.80;99.90
74513;DHT22;62992;52.052;8.550;2023-01-10T01:30:25;5.80;99.90
74513;DHT22;62992;52.052;8.550;2023-01-10T01:33:10;5.80;99.90
74513;DHT22;62992;52.052;8.550;2023-01-10T01:35:54;5.80;99.90
74513;DHT22;62992;52.052;8.550;2023-01-10T01:38:39;5.90;99.90
74513;DHT22;62992;52.052;8.550;2023-01-10T01:41:23;5.90;99.90
74513;DHT22;62992;52.052;8.550;2023-01-10T01:44:36;5.90;99.90
74513;DHT22;62992;52.052;8.550;2023-01-10T01:47:24;5.90;99.90
74513;DHT22;62992;52.052;8.550;2023-01-10T01:53:22;5.90;99.90
74513;DHT22;62992;52.052;8.550;2023-01-10T01:56:18;5.90;99.90
74513;DHT22;62992;52.052;8.550;2023-01-10T01:59:29;6.00;99.90
74513;DHT22;62992;52.052;8.550;2023-01-10T02:02:18;6.00;99.90
74513;DHT22;62992;52.052;8.550;2023-01-10T02:05:10;6.00;99.90
74513;DHT22;62992;52.052;8.550;2023-01-10T02:07:56;6.00;99.90
74513;DHT22;62992;52.052;8.550;2023-01-10T02:11:02;6.00;99.90
74513;DHT22;62992;52.052;8.550;2023-01-10T02:13:48;6.00;99.90
74513;DHT22;62992;52.052;8.550;2023-01-10T02:16:33;6.00;99.90
74513;DHT22;62992;52.052;8.550;2023-01-10T02:28:28;6.10;99.90
74513;DHT22;62992;52.052;8.550;2023-01-10T02:34:50;6.00;99.90
74513;DHT22;62992;52.052;8.550;2023-01-10T02:41:04;6.00;99.90
74513;DHT22;62992;52.052;8.550;2023-01-10T02:43:55;6.00;99.90
74513;DHT22;62992;52.052;8.550;2023-01-10T02:46:42;6.00;99.90
74513;DHT22;62992;52.052;8.550;2023-01-10T02:49:27;6.00;99.90
74513;DHT22;62992;52.052;8.550;2023-01-10T02:52:14;6.00;99.90
74513;DHT22;62992;52.052;8.550;2023-01-10T02:55:01;6.00;99.90
74513;DHT22;62992;52.052;8.550;2023-01-10T02:57:51;6.00;99.90
74513;DHT22;62992;52.052;8.550;2023-01-10T03:00:47;6.00;99.90
74513;DHT22;62992;52.052;8.550;2023-01-10T03:03:51;6.10;99.90
74513;DHT22;62992;52.052;8.550;2023-01-10T03:15:37;6.00;99.90
74513;DHT22;62992;52.052;8.550;2023-01-10T03:18:27;5.90;99.90
74513;DHT22;62992;52.052;8.550;2023-01-10T03:21:15;5.90;99.90
74513;DHT22;62992;52.052;8.550;2023-01-10T03:24:12;5.80;99.90
74513;DHT22;62992;52.052;8.550;2023-01-10T03:30:12;5.80;99.90
74513;DHT22;62992;52.052;8.550;2023-01-10T03:32:59;5.80;99.90
74513;DHT22;62992;52.052;8.550;2023-01-10T03:41:39;5.60;99.90
74513;DHT22;62992;52.052;8.550;2023-01-10T03:44:49;5.60;99.90
74513;DHT22;62992;52.052;8.550;2023-01-10T03:47:43;5.70;99.90
74513;DHT22;62992;52.052;8.550;2023-01-10T03:50:29;5.70;99.90
74513;DHT22;62992;52.052;8.550;2023-01-10T03:53:14;5.70;99.90
74513;DHT22;62992;52.052;8.550;2023-01-10T03:55:59;5.70;99.90
74513;DHT22;62992;52.052;8.550;2023-01-10T03:58:43;5.70;99.90
74513;DHT22;62992;52.052;8.550;2023-01-10T04:01:27;5.70;99.90
74513;DHT22;62992;52.052;8.550;2023-01-10T04:04:11;5.70;99.90
74513;DHT22;62992;52.052;8.550;2023-01-10T04:06:55;5.70;99.90
74513;DHT22;62992;52.052;8.550;2023-01-10T04:09:39;5.70;99.90
74513;DHT22;62992;52.052;8.550;2023-01-10T04:12:23;5.70;99.90
74513;DHT22;62992;52.052;8.550;2023-01-10T04:15:08;5.70;99.90
74513;DHT22;62992;52.052;8.550;2023-01-10T04:17:53;5.70;99.90
74513;DHT22;62992;52.052;8.550;2023-01-10T04:20:37;5.70;99.90
74513;DHT22;62992;52.052;8.550;2023-01-10T04:23:21;5.70;99.90
74513;DHT22;62992;52.052;8.550;2023-01-10T04:26:05;5.70;99.90
74513;DHT22;62992;52.052;8.550;2023-01-10T04:28:49;5.70;99.90
74513;DHT22;62992;52.052;8.550;2023-01-10T04:31:33;5.70;99.90
74513;DHT22;62992;52.052;8.550;2023-01-10T04:34:17;5.70;99.90
74513;DHT22;62992;52.052;8.550;2023-01-10T04:37:03;5.70;99.90
74513;DHT22;62992;52.052;8.550;2023-01-10T04:39:47;5.70;99.90
74513;DHT22;62992;52.052;8.550;2023-01-10T04:42:31;5.70;99.90
74513;DHT22;62992;52.052;8.550;2023-01-10T04:45:15;5.60;99.90
74513;DHT22;62992;52.052;8.550;2023-01-10T04:48:00;5.60;99.90
74513;DHT22;62992;52.052;8.550;2023-01-10T04:50:49;5.60;99.90
74513;DHT22;62992;52.052;8.550;2023-01-10T04:53:34;5.60;99.90
74513;DHT22;62992;52.052;8.550;2023-01-10T04:56:19;5.50;99.90
74513;DHT22;62992;52.052;8.550;2023-01-10T04:59:04;5.50;99.90
74513;DHT22;62992;52.052;8.550;2023-01-10T05:01:49;5.50;99.90
74513;DHT22;62992;52.052;8.550;2023-01-10T05:04:33;5.60;99.90
74513;DHT22;62992;52.052;8.550;2023-01-10T05:07:17;5.60;99.90
74513;DHT22;62992;52.052;8.550;2023-01-10T05:10:02;5.60;99.90
74513;DHT22;62992;52.052;8.550;2023-01-10T05:12:46;5.70;99.90
74513;DHT22;62992;52.052;8.550;2023-01-10T05:15:30;5.70;99.90
74513;DHT22;62992;52.052;8.550;2023-01-10T05:18:14;5.70;99.90
74513;DHT22;62992;52.052;8.550;2023-01-10T05:21:00;5.80;99.90
74513;DHT22;62992;52.052;8.550;2023-01-10T05:23:45;5.80;99.90
74513;DHT22;62992;52.052;8.550;2023-01-10T05:26:29;5.80;99.90
74513;DHT22;62992;52.052;8.550;2023-01-10T05:29:13;5.80;99.90
74513;DHT22;62992;52.052;8.550;2023-01-10T05:32:00;5.80;99.90
74513;DHT22;62992;52.052;8.550;2023-01-10T05:34:44;5.80;99.90
74513;DHT22;62992;52.052;8.550;2023-01-10T05:37:28;5.80;99.90
74513;DHT22;62992;52.052;8.550;2023-01-10T05:40:12;5.80;99.90
74513;DHT22;62992;52.052;8.550;2023-01-10T05:42:56;5.70;99.90
74513;DHT22;62992;52.052;8.550;2023-01-10T05:45:41;5.70;99.90
74513;DHT22;62992;52.052;8.550;2023-01-10T05:48:25;5.70;99.90
74513;DHT22;62992;52.052;8.550;2023-01-10T05:51:09;5.60;99.90
74513;DHT22;62992;52.052;8.550;2023-01-10T05:53:53;5.60;99.90
74513;DHT22;62992;52.052;8.550;2023-01-10T05:56:38;5.60;99.90
74513;DHT22;62992;52.052;8.550;2023-01-10T05:59:22;5.50;99.90
74513;DHT22;62992;52.052;8.550;2023-01-10T06:02:06;5.60;99.90
74513;DHT22;62992;52.052;8.550;2023-01-10T06:04:50;5.50;99.90
74513;DHT22;62992;52.052;8.550;2023-01-10T06:07:35;5.50;99.90
74513;DHT22;62992;52.052;8.550;2023-01-10T06:10:20;5.50;99.90
74513;DHT22;62992;52.052;8.550;2023-01-10T06:13:04;5.60;99.90
74513;DHT22;62992;52.052;8.550;2023-01-10T06:15:48;5.60;99.90
74513;DHT22;62992;52.052;8.550;2023-01-10T06:18:33;5.60;99.90
74513;DHT22;62992;52.052;8.550;2023-01-10T06:21:17;5.60;99.90
74513;DHT22;62992;52.052;8.550;2023-01-10T06:24:01;5.60;99.90
74513;DHT22;62992;52.052;8.550;2023-01-10T06:26:45;5.60;99.90
74513;DHT22;62992;52.052;8.550;2023-01-10T06:29:29;5.60;99.90
74513;DHT22;62992;52.052;8.550;2023-01-10T06:32:13;5.60;99.90
74513;DHT22;62992;52.052;8.550;2023-01-10T06:34:57;5.60;99.90
74513;DHT22;62992;52.052;8.550;2023-01-10T06:37:41;5.60;99.90
74513;DHT22;62992;52.052;8.550;2023-01-10T06:40:26;5.60;99.90
74513;DHT22;62992;52.052;8.550;2023-01-10T06:43:11;5.70;99.90
74513;DHT22;62992;52.052;8.550;2023-01-10T06:45:55;5.60;99.90
74513;DHT22;62992;52.052;8.550;2023-01-10T06:48:39;5.70;99.90
74513;DHT22;62992;52.052;8.550;2023-01-10T06:51:26;5.70;99.90
74513;DHT22;62992;52.052;8.550;2023-01-10T06:54:10;5.70;99.90
74513;DHT22;62992;52.052;8.550;2023-01-10T06:56:54;5.70;99.90
74513;DHT22;62992;52.052;8.550;2023-01-10T06:59:38;5.70;99.90
74513;DHT22;62992;52.052;8.550;2023-01-10T07:02:22;5.70;99.90
74513;DHT22;62992;52.052;8.550;2023-01-10T07:05:06;5.70;99.90
74513;DHT22;62992;52.052;8.550;2023-01-10T07:07:50;5.70;99.90
74513;DHT22;62992;52.052;8.550;2023-01-10T07:10:35;5.70;99.90
74513;DHT22;62992;52.052;8.550;2023-01-10T07:13:19;5.80;99.90
74513;DHT22;62992;52.052;8.550;2023-01-10T07:16:05;5.80;99.90
74513;DHT22;62992;52.052;8.550;2023-01-10T07:18:49;5.80;99.90
74513;DHT22;62992;52.052;8.550;2023-01-10T07:21:33;5.80;99.90
74513;DHT22;62992;52.052;8.550;2023-01-10T07:24:17;5.80;99.90
74513;DHT22;62992;52.052;8.550;2023-01-10T07:27:01;5.80;99.90
74513;DHT22;62992;52.052;8.550;2023-01-10T07:29:46;5.80;99.90
74513;DHT22;62992;52.052;8.550;2023-01-10T07:32:30;5.80;99.90
74513;DHT22;62992;52.052;8.550;2023-01-10T07:35:14;5.80;99.90
74513;DHT22;62992;52.052;8.550;2023-01-10T07:37:58;5.80;99.90
74513;DHT22;62992;52.052;8.550;2023-01-10T07:40:42;5.80;99.90
74513;DHT22;62992;52.052;8.550;2023-01-10T07:43:27;5.80;99.90
74513;DHT22;62992;52.052;8.550;2023-01-10T07:46:11;6.00;99.90
74513;DHT22;62992;52.052;8.550;2023-01-10T07:48:55;6.00;99.90
74513;DHT22;62992;52.052;8.550;2023-01-10T07:51:39;5.90;99.90
74513;DHT22;62992;52.052;8.550;2023-01-10T07:54:23;5.90;99.90
74513;DHT22;62992;52.052;8.550;2023-01-10T07:57:07;5.90;99.90
74513;DHT22;62992;52.052;8.550;2023-01-10T07:59:51;5.90;99.90
74513;DHT22;62992;52.052;8.550;2023-01-10T08:02:35;5.80;99.90
74513;DHT22;62992;52.052;8.550;2023-01-10T08:05:19;5.80;99.90
74513;DHT22;62992;52.052;8.550;2023-01-10T08:08:08;5.80;99.90
74513;DHT22;62992;52.052;8.550;2023-01-10T08:10:53;5.90;99.90
74513;DHT22;62992;52.052;8.550;2023-01-10T08:13:37;5.80;99.90
74513;DHT22;62992;52.052;8.550;2023-01-10T08:16:21;5.80;99.90
74513;DHT22;62992;52.052;8.550;2023-01-10T08:19:05;5.90;99.90
74513;DHT22;62992;52.052;8.550;2023-01-10T08:21:50;6.00;99.90
74513;DHT22;62992;52.052;8.550;2023-01-10T08:24:34;6.10;99.90
74513;DHT22;62992;52.052;8.550;2023-01-10T08:27:19;6.10;99.90
74513;DHT22;62992;52.052;8.550;2023-01-10T08:30:04;6.20;99.90
74513;DHT22;62992;52.052;8.550;2023-01-10T08:32:48;6.20;99.90
74513;DHT22;62992;52.052;8.550;2023-01-10T08:35:39;6.20;99.90
74513;DHT22;62992;52.052;8.550;2023-01-10T08:38:23;6.00;99.90
74513;DHT22;62992;52.052;8.550;2023-01-10T08:41:08;6.00;99.90
74513;DHT22;62992;52.052;8.550;2023-01-10T08:43:52;6.10;99.90
74513;DHT22;62992;52.052;8.550;2023-01-10T08:46:36;6.00;99.90
74513;DHT22;62992;52.052;8.550;2023-01-10T08:49:21;6.00;99.90
74513;DHT22;62992;52.052;8.550;2023-01-10T08:52:05;6.00;99.90
74513;DHT22;62992;52.052;8.550;2023-01-10T08:54:49;6.00;99.90
74513;DHT22;62992;52.052;8.550;2023-01-10T08:57:33;6.00;99.90
74513;DHT22;62992;52.052;8.550;2023-01-10T09:00:18;6.00;99.90
74513;DHT22;62992;52.052;8.550;2023-01-10T09:03:05;6.00;99.90
74513;DHT22;62992;52.052;8.550;2023-01-10T09:05:49;6.10;99.90
74513;DHT22;62992;52.052;8.550;2023-01-10T09:08:34;6.20;99.90
74513;DHT22;62992;52.052;8.550;2023-01-10T09:11:19;6.20;99.90
74513;DHT22;62992;52.052;8.550;2023-01-10T09:14:03;6.10;99.90
74513;DHT22;62992;52.052;8.550;2023-01-10T09:16:47;6.10;99.90
74513;DHT22;62992;52.052;8.550;2023-01-10T09:19:34;6.10;99.90
74513;DHT22;62992;52.052;8.550;2023-01-10T09:22:18;6.20;99.90
74513;DHT22;62992;52.052;8.550;2023-01-10T09:25:03;6.30;99.90
74513;DHT22;62992;52.052;8.550;2023-01-10T09:27:55;6.30;99.90
74513;DHT22;62992;52.052;8.550;2023-01-10T09:30:40;6.40;99.90
74513;DHT22;62992;52.052;8.550;2023-01-10T09:33:24;6.40;99.90
74513;DHT22;62992;52.052;8.550;2023-01-10T09:36:08;6.50;99.90
74513;DHT22;62992;52.052;8.550;2023-01-10T09:38:54;6.50;99.90
74513;DHT22;62992;52.052;8.550;2023-01-10T09:48:04;6.40;99.90
74513;DHT22;62992;52.052;8.550;2023-01-10T09:51:23;6.40;99.90
74513;DHT22;62992;52.052;8.550;2023-01-10T09:54:24;6.40;99.90
74513;DHT22;62992;52.052;8.550;2023-01-10T09:57:18;6.40;99.90
74513;DHT22;62992;52.052;8.550;2023-01-10T10:00:03;6.40;99.90
74513;DHT22;62992;52.052;8.550;2023-01-10T10:02:51;6.50;99.90
74513;DHT22;62992;52.052;8.550;2023-01-10T10:05:35;6.50;99.90
74513;DHT22;62992;52.052;8.550;2023-01-10T10:08:19;6.50;99.90
74513;DHT22;62992;52.052;8.550;2023-01-10T10:17:07;6.60;99.90
74513;DHT22;62992;52.052;8.550;2023-01-10T10:20:05;6.70;99.90
74513;DHT22;62992;52.052;8.550;2023-01-10T10:23:11;6.70;99.90
74513;DHT22;62992;52.052;8.550;2023-01-10T10:26:33;6.70;99.90
74513;DHT22;62992;52.052;8.550;2023-01-10T10:29:35;6.70;99.90
74513;DHT22;62992;52.052;8.550;2023-01-10T10:32:47;6.70;99.90
74513;DHT22;62992;52.052;8.550;2023-01-10T10:35:42;6.70;99.90
74513;DHT22;62992;52.052;8.550;2023-01-10T10:38:36;6.70;99.90
74513;DHT22;62992;52.052;8.550;2023-01-10T10:41:33;6.70;99.90
74513;DHT22;62992;52.052;8.550;2023-01-10T10:44:24;6.70;99.90
74513;DHT22;62992;52.052;8.550;2023-01-10T10:47:19;6.80;99.90
74513;DHT22;62992;52.052;8.550;2023-01-10T10:53:04;6.70;99.90
74513;DHT22;62992;52.052;8.550;2023-01-10T10:55:49;6.80;99.90
74513;DHT22;62992;52.052;8.550;2023-01-10T10:58:34;6.80;99.90
74513;DHT22;62992;52.052;8.550;2023-01-10T11:01:19;6.80;99.90
74513;DHT22;62992;52.052;8.550;2023-01-10T11:04:12;6.90;99.90
74513;DHT22;62992;52.052;8.550;2023-01-10T11:06:56;6.90;99.90
74513;DHT22;62992;52.052;8.550;2023-01-10T11:09:41;6.90;99.90
74513;DHT22;62992;52.052;8.550;2023-01-10T11:12:48;6.80;99.90
74513;DHT22;62992;52.052;8.550;2023-01-10T11:15:41;6.80;99.90
74513;DHT22;62992;52.052;8.550;2023-01-10T11:18:28;6.80;99.90
74513;DHT22;62992;52.052;8.550;2023-01-10T11:21:14;6.90;99.90
74513;DHT22;62992;52.052;8.550;2023-01-10T11:23:58;7.00;99.90
74513;DHT22;62992;52.052;8.550;2023-01-10T11:26:42;7.20;99.90
74513;DHT22;62992;52.052;8.550;2023-01-10T11:29:37;7.10;99.90
74513;DHT22;62992;52.052;8.550;2023-01-10T11:35:20;7.10;99.90
74513;DHT22;62992;52.052;8.550;2023-01-10T11:38:19;7.00;99.90
74513;DHT22;62992;52.052;8.550;2023-01-10T11:41:22;7.10;99.90
74513;DHT22;62992;52.052;8.550;2023-01-10T11:44:24;7.00;99.90
74513;DHT22;62992;52.052;8.550;2023-01-10T11:47:10;7.00;99.90
74513;DHT22;62992;52.052;8.550;2023-01-10T11:49:57;7.10;99.90
74513;DHT22;62992;52.052;8.550;2023-01-10T11:52:43;7.20;99.90
74513;DHT22;62992;52.052;8.550;2023-01-10T11:55:30;7.50;99.90
74513;DHT22;62992;52.052;8.550;2023-01-10T11:58:15;7.40;99.90
74513;DHT22;62992;52.052;8.550;2023-01-10T12:01:00;7.30;99.90
74513;DHT22;62992;52.052;8.550;2023-01-10T12:03:45;7.40;99.90
74513;DHT22;62992;52.052;8.550;2023-01-10T12:06:29;7.40;99.90
74513;DHT22;62992;52.052;8.550;2023-01-10T12:09:54;7.40;99.90
74513;DHT22;62992;52.052;8.550;2023-01-10T12:12:38;7.40;99.90
74513;DHT22;62992;52.052;8.550;2023-01-10T12:15:35;7.40;99.90
74513;DHT22;62992;52.052;8.550;2023-01-10T12:18:19;7.60;99.90
74513;DHT22;62992;52.052;8.550;2023-01-10T12:21:04;7.40;99.90
74513;DHT22;62992;52.052;8.550;2023-01-10T12:23:49;7.40;99.90
74513;DHT22;62992;52.052;8.550;2023-01-10T12:26:34;7.40;99.90
74513;DHT22;62992;52.052;8.550;2023-01-10T12:29:27;7.30;99.90
74513;DHT22;62992;52.052;8.550;2023-01-10T12:32:19;7.30;99.90
74513;DHT22;62992;52.052;8.550;2023-01-10T12:38:25;7.30;99.90
74513;DHT22;62992;52.052;8.550;2023-01-10T12:44:43;7.40;99.90
74513;DHT22;62992;52.052;8.550;2023-01-10T12:47:47;7.30;99.90
74513;DHT22;62992;52.052;8.550;2023-01-10T12:50:42;7.30;99.90
74513;DHT22;62992;52.052;8.550;2023-01-10T12:53:32;7.30;99.90
74513;DHT22;62992;52.052;8.550;2023-01-10T12:56:18;7.30;99.90
74513;DHT22;62992;52.052;8.550;2023-01-10T12:59:13;7.20;99.90
74513;DHT22;62992;52.052;8.550;2023-01-10T13:01:59;7.20;99.90
74513;DHT22;62992;52.052;8.550;2023-01-10T13:04:50;7.20;99.90
74513;DHT22;62992;52.052;8.550;2023-01-10T13:07:36;7.30;99.90
74513;DHT22;62992;52.052;8.550;2023-01-10T13:10:22;7.30;99.90
74513;DHT22;62992;52.052;8.550;2023-01-10T13:13:34;7.30;99.90
74513;DHT22;62992;52.052;8.550;2023-01-10T13:25:01;7.20;99.90
74513;DHT22;62992;52.052;8.550;2023-01-10T13:27:46;7.20;99.90
74513;DHT22;62992;52.052;8.550;2023-01-10T13:30:37;7.20;99.90
74513;DHT22;62992;52.052;8.550;2023-01-10T13:33:28;7.20;99.90
74513;DHT22;62992;52.052;8.550;2023-01-10T13:36:37;7.20;99.90
74513;DHT22;62992;52.052;8.550;2023-01-10T13:39:29;7.30;99.90
74513;DHT22;62992;52.052;8.550;2023-01-10T13:42:29;7.20;99.90
74513;DHT22;62992;52.052;8.550;2023-01-10T13:45:32;7.20;99.90
74513;DHT22;62992;52.052;8.550;2023-01-10T13:48:26;7.20;99.90
74513;DHT22;62992;52.052;8.550;2023-01-10T13:51:19;7.20;99.90
74513;DHT22;62992;52.052;8.550;2023-01-10T13:56:59;7.20;99.90
74513;DHT22;62992;52.052;8.550;2023-01-10T14:00:04;7.20;99.90
74513;DHT22;62992;52.052;8.550;2023-01-10T14:11:58;7.20;99.90
74513;DHT22;62992;52.052;8.550;2023-01-10T14:14:50;7.10;99.90
74513;DHT22;62992;52.052;8.550;2023-01-10T14:17:36;7.10;99.90
74513;DHT22;62992;52.052;8.550;2023-01-10T14:20:22;7.10;99.90
74513;DHT22;62992;52.052;8.550;2023-01-10T14:23:20;7.10;99.90
74513;DHT22;62992;52.052;8.550;2023-01-10T14:26:30;7.10;99.90
74513;DHT22;62992;52.052;8.550;2023-01-10T14:29:14;7.10;99.90
74513;DHT22;62992;52.052;8.550;2023-01-10T14:32:02;7.10;99.90
74513;DHT22;62992;52.052;8.550;2023-01-10T14:34:49;7.10;99.90
74513;DHT22;62992;52.052;8.550;2023-01-10T14:37:41;7.10;99.90
74513;DHT22;62992;52.052;8.550;2023-01-10T14:40:42;7.00;99.90
74513;DHT22;62992;52.052;8.550;2023-01-10T14:43:37;7.00;99.90
74513;DHT22;62992;52.052;8.550;2023-01-10T14:46:51;7.00;99.90
74513;DHT22;62992;52.052;8.550;2023-01-10T14:49:48;7.00;99.90
74513;DHT22;62992;52.052;8.550;2023-01-10T14:52:34;7.00;99.90
74513;DHT22;62992;52.052;8.550;2023-01-10T14:55:18;7.00;99.90
74513;DHT22;62992;52.052;8.550;2023-01-10T14:58:10;6.90;99.90
74513;DHT22;62992;52.052;8.550;2023-01-10T15:01:00;6.90;99.90
74513;DHT22;62992;52.052;8.550;2023-01-10T15:03:45;6.90;99.90
74513;DHT22;62992;52.052;8.550;2023-01-10T15:06:50;6.90;99.90
74513;DHT22;62992;52.052;8.550;2023-01-10T15:09:34;6.90;99.90
74513;DHT22;62992;52.052;8.550;2023-01-10T15:12:19;6.80;99.90
74513;DHT22;62992;52.052;8.550;2023-01-10T15:15:11;6.90;99.90
74513;DHT22;62992;52.052;8.550;2023-01-10T15:17:59;6.90;99.90
74513;DHT22;62992;52.052;8.550;2023-01-10T15:20:44;6.80;99.90
74513;DHT22;62992;52.052;8.550;2023-01-10T15:23:34;6.80;99.90
74513;DHT22;62992;52.052;8.550;2023-01-10T15:26:26;6.80;99.90
74513;DHT22;62992;52.052;8.550;2023-01-10T15:29:22;6.80;99.90
74513;DHT22;62992;52.052;8.550;2023-01-10T15:32:17;6.80;99.90
74513;DHT22;62992;52.052;8.550;2023-01-10T15:35:05;6.80;99.90
74513;DHT22;62992;52.052;8.550;2023-01-10T15:37:56;6.80;99.90
74513;DHT22;62992;52.052;8.550;2023-01-10T15:40:41;6.70;99.90
74513;DHT22;62992;52.052;8.550;2023-01-10T15:43:34;6.80;99.90
74513;DHT22;62992;52.052;8.550;2023-01-10T15:46:23;6.80;99.90
74513;DHT22;62992;52.052;8.550;2023-01-10T15:49:22;6.80;99.90
74513;DHT22;62992;52.052;8.550;2023-01-10T15:52:21;6.80;99.90
74513;DHT22;62992;52.052;8.550;2023-01-10T15:55:35;6.80;99.90
74513;DHT22;62992;52.052;8.550;2023-01-10T15:58:34;6.80;99.90
74513;DHT22;62992;52.052;8.550;2023-01-10T16:01:19;6.80;99.90
74513;DHT22;62992;52.052;8.550;2023-01-10T16:04:04;6.70;99.90
74513;DHT22;62992;52.052;8.550;2023-01-10T16:07:05;6.80;99.90
74513;DHT22;62992;52.052;8.550;2023-01-10T16:09:57;6.80;99.90
74513;DHT22;62992;52.052;8.550;2023-01-10T16:12:43;6.80;99.90
74513;DHT22;62992;52.052;8.550;2023-01-10T16:15:46;6.80;99.90
74513;DHT22;62992;52.052;8.550;2023-01-10T16:18:30;6.70;99.90
74513;DHT22;62992;52.052;8.550;2023-01-10T16:21:14;6.70;99.90
74513;DHT22;62992;52.052;8.550;2023-01-10T16:23:59;6.80;99.90
74513;DHT22;62992;52.052;8.550;2023-01-10T16:26:44;6.70;99.90
74513;DHT22;62992;52.052;8.550;2023-01-10T16:29:28;6.80;99.90
74513;DHT22;62992;52.052;8.550;2023-01-10T16:32:13;6.70;99.90
74513;DHT22;62992;52.052;8.550;2023-01-10T16:34:57;6.70;99.90
74513;DHT22;62992;52.052;8.550;2023-01-10T16:37:47;6.70;99.90
74513;DHT22;62992;52.052;8.550;2023-01-10T16:40:50;6.70;99.90
74513;DHT22;62992;52.052;8.550;2023-01-10T16:43:35;6.70;99.90
74513;DHT22;62992;52.052;8.550;2023-01-10T16:46:19;6.70;99.90
74513;DHT22;62992;52.052;8.550;2023-01-10T16:49:04;6.70;99.90
74513;DHT22;62992;52.052;8.550;2023-01-10T16:51:49;6.70;99.90
74513;DHT22;62992;52.052;8.550;2023-01-10T16:54:33;6.70;99.90
74513;DHT22;62992;52.052;8.550;2023-01-10T16:57:19;6.70;99.90
74513;DHT22;62992;52.052;8.550;2023-01-10T17:00:04;6.70;99.90
74513;DHT22;62992;52.052;8.550;2023-01-10T17:02:48;6.70;99.90
74513;DHT22;62992;52.052;8.550;2023-01-10T17:05:33;6.70;99.90
74513;DHT22;62992;52.052;8.550;2023-01-10T17:08:22;6.70;99.90
74513;DHT22;62992;52.052;8.550;2023-01-10T17:11:17;6.70;99.90
74513;DHT22;62992;52.052;8.550;2023-01-10T17:14:02;6.70;99.90
74513;DHT22;62992;52.052;8.550;2023-01-10T17:16:48;6.70;99.90
74513;DHT22;62992;52.052;8.550;2023-01-10T17:19:32;6.70;99.90
74513;DHT22;62992;52.052;8.550;2023-01-10T17:22:17;6.70;99.90
74513;DHT22;62992;52.052;8.550;2023-01-10T17:25:01;6.70;99.90
74513;DHT22;62992;52.052;8.550;2023-01-10T17:27:45;6.70;99.90
74513;DHT22;62992;52.052;8.550;2023-01-10T17:30:29;6.70;99.90
74513;DHT22;62992;52.052;8.550;2023-01-10T17:33:13;6.70;99.90
74513;DHT22;62992;52.052;8.550;2023-01-10T17:35:57;6.70;99.90
74513;DHT22;62992;52.052;8.550;2023-01-10T17:38:41;6.70;99.90
74513;DHT22;62992;52.052;8.550;2023-01-10T17:41:26;6.70;99.90
74513;DHT22;62992;52.052;8.550;2023-01-10T17:44:10;6.70;99.90
74513;DHT22;62992;52.052;8.550;2023-01-10T17:46:54;6.70;99.90
74513;DHT22;62992;52.052;8.550;2023-01-10T17:49:39;6.70;99.90
74513;DHT22;62992;52.052;8.550;2023-01-10T17:52:26;6.70;99.90
74513;DHT22;62992;52.052;8.550;2023-01-10T17:55:10;6.70;99.90
74513;DHT22;62992;52.052;8.550;2023-01-10T17:57:54;6.60;99.90
74513;DHT22;62992;52.052;8.550;2023-01-10T18:00:39;6.60;99.90
74513;DHT22;62992;52.052;8.550;2023-01-10T18:03:23;6.60;99.90
74513;DHT22;62992;52.052;8.550;2023-01-10T18:06:07;6.60;99.90
74513;DHT22;62992;52.052;8.550;2023-01-10T18:08:52;6.60;99.90
74513;DHT22;62992;52.052;8.550;2023-01-10T18:11:36;6.70;99.90
74513;DHT22;62992;52.052;8.550;2023-01-10T18:14:20;6.70;99.90
74513;DHT22;62992;52.052;8.550;2023-01-10T18:17:20;6.70;99.90
74513;DHT22;62992;52.052;8.550;2023-01-10T18:20:05;6.70;99.90
74513;DHT22;62992;52.052;8.550;2023-01-10T18:22:49;6.70;99.90
74513;DHT22;62992;52.052;8.550;2023-01-10T18:26:00;6.70;99.90
74513;DHT22;62992;52.052;8.550;2023-01-10T18:28:45;6.70;99.90
74513;DHT22;62992;52.052;8.550;2023-01-10T18:31:29;6.70;99.90
74513;DHT22;62992;52.052;8.550;2023-01-10T18:34:13;6.70;99.90
74513;DHT22;62992;52.052;8.550;2023-01-10T18:36:57;6.80;99.90
74513;DHT22;62992;52.052;8.550;2023-01-10T18:39:41;6.70;99.90
74513;DHT22;62992;52.052;8.550;2023-01-10T18:42:28;6.70;99.90
74513;DHT22;62992;52.052;8.550;2023-01-10T18:45:12;6.80;99.90
74513;DHT22;62992;52.052;8.550;2023-01-10T18:47:57;6.70;99.90
74513;DHT22;62992;52.052;8.550;2023-01-10T18:50:42;6.80;99.90
74513;DHT22;62992;52.052;8.550;2023-01-10T18:53:27;6.80;99.90
74513;DHT22;62992;52.052;8.550;2023-01-10T18:56:12;6.80;99.90
74513;DHT22;62992;52.052;8.550;2023-01-10T18:58:56;6.80;99.90
74513;DHT22;62992;52.052;8.550;2023-01-10T19:01:41;6.70;99.90
74513;DHT22;62992;52.052;8.550;2023-01-10T19:04:25;6.60;99.90
74513;DHT22;62992;52.052;8.550;2023-01-10T19:07:10;6.60;99.90
74513;DHT22;62992;52.052;8.550;2023-01-10T19:09:54;6.50;99.90
74513;DHT22;62992;52.052;8.550;2023-01-10T19:12:37;6.50;99.90
74513;DHT22;62992;52.052;8.550;2023-01-10T19:15:24;6.40;99.90
74513;DHT22;62992;52.052;8.550;2023-01-10T19:18:08;6.40;99.90
74513;DHT22;62992;52.052;8.550;2023-01-10T19:20:52;6.30;99.90